Time;durP1;ratioP1;P1;durP2;ratioP2;P2;SDS_P1;SDS_P2;PMS_P1;PMS_P2;Temp;Humidity;BMP_temperature;BMP_pressure;BME280_temperature;BME280_humidity;BME280_pressure;Samples;Min_cycle;Max_cycle;Signal;HPM_P1;HPM_P2
2023/03/27 00:01:57;;;;;;;7.60;0.98;;;4.20;99.90;;;;;;4982170;28;20042;-90
2023/03/27 00:04:22;;;;;;;7.53;1.00;;;4.20;99.90;;;;;;4971785;28;20050;-91
2023/03/27 00:06:48;;;;;;;4.80;1.40;;;4.20;99.90;;;;;;4970381;28;20054;-91
2023/03/27 00:09:15;;;;;;;2.85;1.00;;;4.10;99.90;;;;;;4970039;28;20052;-91
2023/03/27 00:11:41;;;;;;;1.75;0.80;;;4.00;99.90;;;;;;4971676;28;20023;-92
2023/03/27 00:14:07;;;;;;;3.60;0.82;;;4.00;99.90;;;;;;4972133;28;20031;-91
2023/03/27 00:16:33;;;;;;;2.33;0.93;;;4.00;99.90;;;;;;4992598;28;20030;-92
2023/03/27 00:18:59;;;;;;;5.35;0.90;;;3.90;99.90;;;;;;4997403;28;20031;-92
2023/03/27 00:21:25;;;;;;;4.25;0.73;;;3.90;99.90;;;;;;4990885;28;20042;-91
2023/03/27 00:23:53;;;;;;;3.92;0.95;;;3.90;99.90;;;;;;4968803;28;20031;-91
2023/03/27 00:26:20;;;;;;;3.83;1.02;;;3.80;99.90;;;;;;4966708;28;20030;-91
2023/03/27 00:28:47;;;;;;;4.75;1.00;;;3.70;99.90;;;;;;4970959;28;20244;-91
2023/03/27 00:31:14;;;;;;;10.95;1.23;;;3.70;99.90;;;;;;4969852;28;20050;-92
2023/03/27 00:33:40;;;;;;;4.60;1.15;;;3.60;99.90;;;;;;4987221;28;20056;-91
2023/03/27 00:36:07;;;;;;;2.08;0.65;;;3.50;99.90;;;;;;4987358;28;20110;-91
2023/03/27 00:38:32;;;;;;;4.85;0.85;;;3.50;99.90;;;;;;4986462;28;20031;-92
2023/03/27 00:40:59;;;;;;;3.40;0.95;;;3.50;99.90;;;;;;4983323;28;20408;-92
2023/03/27 00:43:26;;;;;;;3.63;1.25;;;3.50;99.90;;;;;;4983625;28;20018;-92
2023/03/27 00:45:56;;;;;;;3.95;1.70;;;3.50;99.90;;;;;;4971331;28;20026;-91
2023/03/27 00:48:24;;;;;;;8.23;1.20;;;3.50;99.90;;;;;;4959774;28;20031;-92
2023/03/27 00:50:50;;;;;;;7.63;1.25;;;3.50;99.90;;;;;;4968805;28;20027;-92
2023/03/27 00:53:25;;;;;;;4.43;1.30;;;3.40;99.90;;;;;;4964169;28;20051;-91
2023/03/27 00:55:54;;;;;;;5.40;1.10;;;3.40;99.90;;;;;;4959152;28;20033;-92
2023/03/27 00:58:36;;;;;;;5.13;1.08;;;3.40;99.90;;;;;;4976172;28;20027;-92
2023/03/27 01:01:02;;;;;;;3.67;1.25;;;3.30;99.90;;;;;;4961974;28;20030;-91
2023/03/27 01:03:30;;;;;;;6.35;1.13;;;3.30;99.90;;;;;;4958290;28;20080;-93
2023/03/27 01:06:00;;;;;;;3.58;1.23;;;3.20;99.90;;;;;;4961619;28;20035;-93
2023/03/27 01:08:28;;;;;;;8.18;1.20;;;3.30;99.90;;;;;;4958530;28;20041;-92
2023/03/27 01:11:00;;;;;;;1.15;0.80;;;3.20;99.90;;;;;;4958058;28;20099;-92
2023/03/27 01:13:26;;;;;;;3.90;0.90;;;3.20;99.90;;;;;;4957888;28;20385;-91
2023/03/27 01:16:00;;;;;;;3.95;1.20;;;3.20;99.90;;;;;;4958377;28;20030;-91
2023/03/27 01:18:54;;;;;;;3.67;1.10;;;3.10;99.90;;;;;;4958817;28;20217;-91
2023/03/27 01:21:32;;;;;;;2.55;1.08;;;3.10;99.90;;;;;;4954173;28;20064;-91
2023/03/27 01:24:36;;;;;;;4.57;0.85;;;3.10;99.90;;;;;;4957774;28;20477;-92
2023/03/27 01:27:09;;;;;;;2.63;0.90;;;3.00;99.90;;;;;;4958425;28;20059;-91
2023/03/27 01:29:51;;;;;;;4.38;0.93;;;3.00;99.90;;;;;;4958179;28;20019;-91
2023/03/27 01:32:31;;;;;;;3.67;1.25;;;3.00;99.90;;;;;;4957823;28;20404;-91
2023/03/27 01:35:19;;;;;;;4.10;1.20;;;3.00;99.90;;;;;;4958145;28;20031;-91
2023/03/27 01:38:19;;;;;;;2.58;1.08;;;2.90;99.90;;;;;;4957581;28;20086;-91
2023/03/27 01:41:10;;;;;;;3.55;1.25;;;2.90;99.90;;;;;;4947873;28;20047;-91
2023/03/27 01:43:51;;;;;;;;;;;2.90;99.90;;;;;;4973426;28;20027;-90
2023/03/27 01:46:25;;;;;;;3.67;1.08;;;2.90;99.90;;;;;;4975161;28;19913;-92
2023/03/27 01:48:56;;;;;;;6.63;1.20;;;2.90;99.90;;;;;;4958089;28;20042;-92
2023/03/27 01:54:30;;;;;;;5.07;1.05;;;2.80;99.90;;;;;;5111449;27;20459;-92
2023/03/27 01:57:07;;;;;;;;;;;2.90;99.90;;;;;;5111017;28;20028;-91
2023/03/27 01:59:37;;;;;;;6.72;1.30;;;2.90;99.90;;;;;;5110111;28;20017;-91
2023/03/27 02:02:12;;;;;;;3.55;0.77;;;2.90;99.90;;;;;;5110603;28;20481;-91
2023/03/27 02:04:50;;;;;;;4.57;0.98;;;2.80;99.90;;;;;;5110435;28;20031;-92
2023/03/27 02:07:22;;;;;;;2.30;1.20;;;2.80;99.90;;;;;;5110865;28;20043;-92
2023/03/27 02:09:52;;;;;;;5.50;1.00;;;2.80;99.90;;;;;;5109941;28;20469;-91
2023/03/27 02:12:23;;;;;;;5.00;1.58;;;2.80;99.90;;;;;;5110443;28;20438;-92
2023/03/27 02:15:11;;;;;;;5.72;1.05;;;2.80;99.90;;;;;;5110783;28;20043;-91
2023/03/27 02:17:43;;;;;;;2.95;1.17;;;2.80;99.90;;;;;;5143474;27;20024;-92
2023/03/27 02:20:15;;;;;;;3.67;1.17;;;2.80;99.90;;;;;;5109922;28;20046;-90
2023/03/27 02:22:42;;;;;;;4.25;1.13;;;2.80;99.90;;;;;;5110048;28;20115;-91
2023/03/27 02:25:27;;;;;;;3.60;0.90;;;2.80;99.90;;;;;;5109757;28;20118;-90
2023/03/27 02:28:08;;;;;;;3.92;1.30;;;2.80;99.90;;;;;;5109225;28;20028;-92
2023/03/27 02:30:38;;;;;;;;;;;2.80;99.90;;;;;;5117901;28;20040;-91
2023/03/27 02:33:14;;;;;;;4.20;1.40;;;2.70;99.90;;;;;;5125859;28;19920;-88
2023/03/27 02:35:59;;;;;;;4.03;1.20;;;2.60;99.90;;;;;;5117615;28;20158;-91
2023/03/27 02:38:46;;;;;;;5.75;1.10;;;2.60;99.90;;;;;;5109731;28;20058;-91
2023/03/27 02:41:21;;;;;;;2.92;1.20;;;2.70;99.90;;;;;;5110353;28;20469;-90
2023/03/27 02:43:58;;;;;;;2.88;1.05;;;2.70;99.90;;;;;;5109800;28;20114;-91
2023/03/27 02:46:39;;;;;;;3.63;1.15;;;2.70;99.90;;;;;;5110857;28;20039;-91
2023/03/27 02:49:22;;;;;;;5.22;0.88;;;2.70;99.90;;;;;;5114402;28;20520;-91
2023/03/27 02:51:55;;;;;;;5.07;2.28;;;2.70;99.90;;;;;;5109670;28;20059;-91
2023/03/27 02:54:28;;;;;;;2.50;0.98;;;2.70;99.90;;;;;;5108830;28;20481;-91
2023/03/27 02:57:01;;;;;;;3.25;1.17;;;2.60;99.90;;;;;;5110015;28;20081;-91
2023/03/27 02:59:35;;;;;;;8.77;1.30;;;2.70;99.90;;;;;;5109939;28;20053;-93
2023/03/27 03:02:04;;;;;;;3.47;1.42;;;2.70;99.90;;;;;;5108490;28;20031;-92
2023/03/27 03:04:40;;;;;;;3.25;1.00;;;2.70;99.90;;;;;;5101060;28;20035;-91
2023/03/27 03:07:07;;;;;;;9.38;1.70;;;2.60;99.90;;;;;;5095645;28;20020;-92
2023/03/27 03:09:33;;;;;;;6.20;1.30;;;2.60;99.90;;;;;;5099523;28;20035;-92
2023/03/27 03:11:58;;;;;;;3.15;1.08;;;2.60;99.90;;;;;;5094665;28;20020;-92
2023/03/27 03:14:42;;;;;;;3.67;1.40;;;2.70;99.90;;;;;;5094954;28;20562;-92
2023/03/27 03:17:08;;;;;;;4.68;1.17;;;2.60;99.90;;;;;;5095199;28;20031;-92
2023/03/27 03:19:34;;;;;;;3.15;0.95;;;2.50;99.90;;;;;;5095232;28;20492;-92
2023/03/27 03:22:00;;;;;;;3.17;1.10;;;2.50;99.90;;;;;;5094518;28;20028;-92
2023/03/27 03:24:26;;;;;;;6.57;1.25;;;2.40;99.90;;;;;;5094264;28;20342;-92
2023/03/27 03:26:52;;;;;;;3.70;1.17;;;2.40;99.90;;;;;;5094489;28;20020;-91
2023/03/27 03:29:18;;;;;;;6.75;1.25;;;2.40;99.90;;;;;;5095187;28;20055;-92
2023/03/27 03:31:44;;;;;;;10.57;1.50;;;2.40;99.90;;;;;;5095893;28;20433;-92
2023/03/27 03:34:17;;;;;;;5.28;2.35;;;2.50;99.90;;;;;;5094316;28;20032;-92
2023/03/27 03:36:47;;;;;;;3.55;1.50;;;2.50;99.90;;;;;;5095059;28;20042;-92
2023/03/27 03:39:15;;;;;;;3.65;1.27;;;2.50;99.90;;;;;;5094414;28;20564;-93
2023/03/27 03:41:41;;;;;;;5.88;1.77;;;2.60;99.90;;;;;;5095352;28;20036;-92
2023/03/27 03:44:08;;;;;;;4.97;1.20;;;2.60;99.90;;;;;;5093903;28;20032;-91
2023/03/27 03:46:34;;;;;;;11.35;2.55;;;2.60;99.90;;;;;;5094121;28;20461;-91
2023/03/27 03:49:00;;;;;;;5.60;1.33;;;2.60;99.90;;;;;;5094151;28;20035;-92
2023/03/27 03:51:27;;;;;;;8.27;2.03;;;2.60;99.90;;;;;;5094820;28;20401;-92
2023/03/27 03:53:52;;;;;;;4.00;1.40;;;2.60;99.90;;;;;;5093738;28;20048;-92
2023/03/27 03:56:18;;;;;;;5.15;1.33;;;2.60;99.90;;;;;;5093806;28;20024;-92
2023/03/27 03:58:44;;;;;;;3.70;1.10;;;2.60;99.90;;;;;;5093664;28;20444;-90
2023/03/27 04:01:09;;;;;;;4.88;1.42;;;2.60;99.90;;;;;;5093434;28;20123;-92
2023/03/27 04:03:35;;;;;;;4.95;1.38;;;2.60;99.90;;;;;;5094187;28;20568;-91
2023/03/27 04:06:04;;;;;;;5.60;1.83;;;2.60;99.90;;;;;;5093646;28;20089;-91
2023/03/27 04:08:30;;;;;;;7.40;2.08;;;2.60;99.90;;;;;;5093986;28;20016;-91
2023/03/27 04:10:57;;;;;;;3.90;1.40;;;2.60;99.90;;;;;;5093375;28;20025;-91
2023/03/27 04:13:23;;;;;;;6.03;1.38;;;2.60;99.90;;;;;;5093654;28;20047;-92
2023/03/27 04:15:50;;;;;;;7.10;2.25;;;2.60;99.90;;;;;;5092633;28;20051;-91
2023/03/27 04:18:18;;;;;;;4.80;1.23;;;2.60;99.90;;;;;;5093418;28;20032;-90
2023/03/27 04:20:48;;;;;;;3.40;0.82;;;2.60;99.90;;;;;;5093748;28;20032;-91
2023/03/27 04:23:17;;;;;;;3.08;1.42;;;2.60;99.90;;;;;;5093212;28;20056;-91
2023/03/27 04:25:46;;;;;;;3.80;1.23;;;2.60;99.90;;;;;;5093233;28;20127;-91
2023/03/27 04:28:16;;;;;;;6.70;1.10;;;2.70;99.90;;;;;;5093250;28;20028;-91
2023/03/27 04:30:43;;;;;;;3.10;1.25;;;2.70;99.90;;;;;;5093124;28;20044;-92
2023/03/27 04:33:17;;;;;;;6.70;1.40;;;2.70;99.90;;;;;;5095386;28;20031;-92
2023/03/27 04:35:46;;;;;;;3.33;1.40;;;2.70;99.90;;;;;;5098614;28;20115;-90
2023/03/27 04:38:13;;;;;;;4.22;1.30;;;2.70;99.90;;;;;;5093008;28;20115;-92
2023/03/27 04:40:39;;;;;;;7.20;1.20;;;2.60;99.90;;;;;;5093043;28;20020;-91
2023/03/27 04:43:06;;;;;;;4.68;1.35;;;2.60;99.90;;;;;;5092716;28;20031;-92
2023/03/27 04:45:32;;;;;;;7.13;1.35;;;2.50;99.90;;;;;;5093974;28;20389;-91
2023/03/27 04:47:58;;;;;;;6.57;1.40;;;2.50;99.90;;;;;;5092760;28;20031;-91
2023/03/27 04:50:24;;;;;;;4.15;1.27;;;2.50;99.90;;;;;;5093502;28;20039;-90
2023/03/27 04:52:50;;;;;;;7.43;1.50;;;2.60;99.90;;;;;;5092636;28;20087;-91
2023/03/27 04:55:18;;;;;;;3.92;1.38;;;2.60;99.90;;;;;;5093099;28;20111;-89
2023/03/27 04:57:47;;;;;;;5.30;1.30;;;2.60;99.90;;;;;;5098062;28;20020;-90
2023/03/27 05:00:18;;;;;;;5.15;1.85;;;2.60;99.90;;;;;;5096251;28;20056;-90
2023/03/27 05:02:47;;;;;;;4.88;1.05;;;2.60;99.90;;;;;;5092976;28;20111;-90
2023/03/27 05:05:15;;;;;;;4.10;1.20;;;2.60;99.90;;;;;;5092782;28;20115;-90
2023/03/27 05:07:44;;;;;;;8.15;1.30;;;2.50;99.90;;;;;;5093209;28;20030;-90
2023/03/27 05:10:10;;;;;;;13.15;1.48;;;2.50;99.90;;;;;;5092657;28;20024;-92
2023/03/27 05:12:40;;;;;;;6.75;1.27;;;2.50;99.90;;;;;;5092839;28;20370;-90
2023/03/27 05:15:08;;;;;;;6.07;1.50;;;2.50;99.90;;;;;;5092871;28;20423;-91
2023/03/27 05:17:39;;;;;;;3.75;1.13;;;2.50;99.90;;;;;;5092172;28;20059;-91
2023/03/27 05:20:07;;;;;;;5.45;1.40;;;2.50;99.90;;;;;;5092274;28;20038;-91
2023/03/27 05:22:33;;;;;;;4.65;1.15;;;2.50;99.90;;;;;;5092276;28;20020;-91
2023/03/27 05:24:59;;;;;;;2.63;1.40;;;2.50;99.90;;;;;;5092445;28;20485;-91
2023/03/27 05:27:25;;;;;;;4.40;1.48;;;2.50;99.90;;;;;;5091897;28;20043;-90
2023/03/27 05:29:51;;;;;;;7.07;1.50;;;2.50;99.90;;;;;;5092773;28;20024;-91
2023/03/27 05:32:16;;;;;;;6.30;1.50;;;2.50;99.90;;;;;;5091895;28;20474;-91
2023/03/27 05:34:42;;;;;;;5.65;1.30;;;2.50;99.90;;;;;;5092197;28;20048;-90
2023/03/27 05:37:08;;;;;;;4.55;1.10;;;2.50;99.90;;;;;;5092104;28;20423;-90
2023/03/27 05:39:35;;;;;;;6.10;1.15;;;2.50;99.90;;;;;;5092882;28;20520;-91
2023/03/27 05:42:02;;;;;;;4.85;1.50;;;2.50;99.90;;;;;;5093830;28;20107;-91
2023/03/27 05:44:27;;;;;;;3.80;1.38;;;2.50;99.90;;;;;;5091961;28;20028;-91
2023/03/27 05:46:53;;;;;;;4.63;1.48;;;2.50;99.90;;;;;;5092398;28;20046;-91
2023/03/27 05:49:20;;;;;;;3.25;0.98;;;2.50;99.90;;;;;;5092704;28;20119;-91
2023/03/27 05:51:46;;;;;;;6.10;1.25;;;2.50;99.90;;;;;;5093599;28;20016;-91
2023/03/27 05:54:11;;;;;;;2.92;1.15;;;2.50;99.90;;;;;;5092326;28;20044;-90
2023/03/27 05:56:37;;;;;;;4.22;1.05;;;2.50;99.90;;;;;;5093617;28;20027;-91
2023/03/27 05:59:02;;;;;;;6.45;1.35;;;2.50;99.90;;;;;;5094061;28;20397;-92
2023/03/27 06:01:29;;;;;;;2.25;0.90;;;2.50;99.90;;;;;;5099962;28;20028;-91
2023/03/27 06:03:54;;;;;;;5.45;1.42;;;2.50;99.90;;;;;;5110247;28;20032;-90
2023/03/27 06:06:20;;;;;;;4.10;1.20;;;2.50;99.90;;;;;;5111514;28;20028;-90
2023/03/27 06:08:46;;;;;;;5.40;1.10;;;2.50;99.90;;;;;;5112283;28;20049;-90
2023/03/27 06:11:14;;;;;;;2.63;1.10;;;2.50;99.90;;;;;;5112674;28;20024;-90
2023/03/27 06:13:39;;;;;;;4.43;1.52;;;2.50;99.90;;;;;;5115265;28;20305;-90
2023/03/27 06:16:06;;;;;;;5.35;0.90;;;2.50;99.90;;;;;;5116785;28;20034;-90
2023/03/27 06:18:32;;;;;;;3.25;1.13;;;2.50;99.90;;;;;;5116181;28;20040;-90
2023/03/27 06:20:58;;;;;;;6.22;1.38;;;2.50;99.90;;;;;;5116218;28;20065;-90
2023/03/27 06:23:24;;;;;;;6.15;1.92;;;2.50;99.90;;;;;;5105512;28;20036;-90
2023/03/27 06:25:51;;;;;;;5.25;1.88;;;2.50;99.90;;;;;;5097314;28;20081;-91
2023/03/27 06:28:18;;;;;;;2.42;1.10;;;2.50;99.90;;;;;;5095982;28;20031;-91
2023/03/27 06:30:47;;;;;;;5.50;1.60;;;2.40;99.90;;;;;;5099103;28;20024;-90
2023/03/27 06:33:16;;;;;;;5.78;1.60;;;2.40;99.90;;;;;;5097812;28;20032;-91
2023/03/27 06:35:44;;;;;;;3.33;1.60;;;2.40;99.90;;;;;;5093824;28;20028;-91
2023/03/27 06:38:09;;;;;;;9.90;1.88;;;2.40;99.90;;;;;;5093144;28;20649;-90
2023/03/27 06:40:35;;;;;;;7.50;1.80;;;2.40;99.90;;;;;;5096216;28;20017;-92
2023/03/27 06:43:07;;;;;;;8.95;1.90;;;2.30;99.90;;;;;;5096288;28;20032;-91
2023/03/27 06:45:33;;;;;;;5.47;1.75;;;2.30;99.90;;;;;;5097092;28;20055;-91
2023/03/27 06:48:02;;;;;;;4.30;1.90;;;2.30;99.90;;;;;;5091311;28;20023;-92
2023/03/27 06:50:29;;;;;;;4.70;1.50;;;2.40;99.90;;;;;;5084055;28;20527;-92
2023/03/27 06:52:56;;;;;;;4.50;1.10;;;2.40;99.90;;;;;;5083731;28;20528;-90
2023/03/27 06:55:25;;;;;;;5.70;1.65;;;2.40;99.90;;;;;;5094904;28;20032;-93
2023/03/27 06:57:52;;;;;;;5.05;1.20;;;2.30;99.90;;;;;;5096125;28;20016;-91
2023/03/27 07:00:23;;;;;;;3.03;1.50;;;2.30;99.90;;;;;;5096249;28;20032;-91
2023/03/27 07:02:52;;;;;;;3.28;1.50;;;2.30;99.90;;;;;;5096792;28;20557;-90
2023/03/27 07:05:18;;;;;;;5.88;1.58;;;2.30;99.90;;;;;;5097902;28;20149;-91
2023/03/27 07:07:45;;;;;;;8.07;1.60;;;2.30;99.90;;;;;;5100646;28;20468;-90
2023/03/27 07:10:11;;;;;;;2.83;1.40;;;2.30;99.90;;;;;;5098295;28;20060;-93
2023/03/27 07:12:37;;;;;;;5.53;2.17;;;2.40;99.90;;;;;;5095518;28;20036;-92
2023/03/27 07:15:05;;;;;;;3.92;1.80;;;2.50;99.90;;;;;;5095371;28;20031;-91
2023/03/27 07:17:33;;;;;;;7.03;2.05;;;2.40;99.90;;;;;;5095075;28;20035;-90
2023/03/27 07:20:00;;;;;;;8.05;1.98;;;2.50;99.90;;;;;;5095047;28;20027;-91
2023/03/27 07:22:26;;;;;;;6.70;2.05;;;2.60;99.90;;;;;;5095776;28;20115;-91
2023/03/27 07:24:52;;;;;;;8.55;2.33;;;2.50;99.90;;;;;;5096989;28;20094;-92
2023/03/27 07:27:17;;;;;;;7.32;1.50;;;2.60;99.90;;;;;;5098373;28;20540;-91
2023/03/27 07:29:43;;;;;;;4.25;1.50;;;2.60;99.90;;;;;;5113804;28;20044;-91
2023/03/27 07:32:09;;;;;;;4.18;1.75;;;2.60;99.90;;;;;;5104738;28;20078;-92
2023/03/27 07:34:34;;;;;;;10.65;1.73;;;2.60;99.90;;;;;;5103012;28;20088;-92
2023/03/27 07:37:00;;;;;;;6.25;1.50;;;2.70;99.90;;;;;;5097318;28;20085;-94
2023/03/27 07:39:26;;;;;;;6.22;1.90;;;2.70;99.90;;;;;;5097196;28;20024;-92
2023/03/27 07:41:51;;;;;;;10.35;1.88;;;2.70;99.90;;;;;;5096366;28;20029;-93
2023/03/27 07:44:18;;;;;;;7.10;1.50;;;2.80;99.90;;;;;;5097790;28;20028;-92
2023/03/27 07:46:45;;;;;;;5.45;1.38;;;2.80;99.90;;;;;;5100996;28;20024;-93
2023/03/27 07:49:12;;;;;;;9.98;1.92;;;2.90;99.90;;;;;;5101884;28;20121;-93
2023/03/27 07:51:38;;;;;;;4.75;1.55;;;2.90;99.90;;;;;;5108621;28;20008;-92
2023/03/27 07:54:04;;;;;;;5.13;1.52;;;3.00;99.90;;;;;;5118345;28;20064;-93
2023/03/27 07:56:34;;;;;;;4.45;1.50;;;3.10;99.90;;;;;;5118842;28;20016;-92
2023/03/27 07:59:00;;;;;;;7.72;1.60;;;3.20;99.90;;;;;;5103342;28;20032;-90
2023/03/27 08:01:26;;;;;;;6.63;1.50;;;3.30;99.90;;;;;;5104160;28;20008;-90
2023/03/27 08:03:52;;;;;;;9.70;1.50;;;3.40;99.90;;;;;;5104308;28;20015;-90
2023/03/27 08:06:18;;;;;;;3.15;1.17;;;3.50;99.90;;;;;;5101159;28;20067;-91
2023/03/27 08:08:44;;;;;;;6.85;1.25;;;3.50;99.90;;;;;;5110467;28;20027;-91
2023/03/27 08:11:10;;;;;;;4.13;1.00;;;3.60;99.90;;;;;;5116461;28;20031;-91
2023/03/27 08:13:36;;;;;;;5.85;1.30;;;3.60;99.90;;;;;;5117002;28;20020;-92
2023/03/27 08:16:11;;;;;;;9.93;1.60;;;3.70;99.90;;;;;;5100973;28;20024;-95
2023/03/27 08:18:36;;;;;;;6.22;1.50;;;3.80;99.90;;;;;;5095275;28;20016;-93
2023/03/27 08:21:04;;;;;;;7.57;1.70;;;3.80;99.90;;;;;;5088311;28;20039;-92
2023/03/27 08:23:32;;;;;;;5.63;1.33;;;3.80;99.90;;;;;;5090314;28;20054;-92
2023/03/27 08:25:59;;;;;;;3.05;1.20;;;3.80;99.90;;;;;;5085916;28;20049;-91
2023/03/27 08:28:30;;;;;;;9.50;1.50;;;3.90;99.90;;;;;;5086485;28;20083;-92
2023/03/27 08:30:57;;;;;;;7.00;1.30;;;3.90;99.90;;;;;;5088551;28;20023;-91
2023/03/27 08:33:26;;;;;;;9.27;1.20;;;4.00;99.90;;;;;;5083595;28;20041;-91
2023/03/27 08:35:52;;;;;;;5.47;1.38;;;4.10;99.90;;;;;;5086978;28;20035;-90
2023/03/27 08:38:18;;;;;;;3.03;0.90;;;4.10;99.90;;;;;;5084949;28;20501;-91
2023/03/27 08:40:49;;;;;;;6.82;0.95;;;4.20;99.90;;;;;;5083269;28;20025;-91
2023/03/27 08:43:21;;;;;;;5.70;1.20;;;4.20;99.90;;;;;;5085684;28;20028;-92
2023/03/27 08:45:52;;;;;;;7.45;1.27;;;4.30;99.90;;;;;;5087881;28;20020;-93
2023/03/27 08:48:30;;;;;;;7.28;1.30;;;4.30;99.90;;;;;;5086640;28;20077;-94
2023/03/27 08:51:02;;;;;;;6.00;1.20;;;4.30;99.90;;;;;;5086933;28;20020;-93
2023/03/27 08:53:50;;;;;;;6.60;1.55;;;4.40;99.90;;;;;;5089144;28;20051;-93
2023/03/27 08:56:17;;;;;;;8.30;1.40;;;4.50;99.90;;;;;;5088584;28;20027;-93
2023/03/27 08:58:44;;;;;;;7.65;1.48;;;4.60;99.90;;;;;;5088403;28;20049;-93
2023/03/27 09:01:23;;;;;;;3.20;1.45;;;4.70;99.90;;;;;;5085888;28;20016;-94
2023/03/27 09:04:00;;;;;;;8.60;1.33;;;4.90;99.90;;;;;;5085282;28;20039;-95
2023/03/27 09:06:55;;;;;;;5.15;1.42;;;5.00;99.90;;;;;;5085905;28;20020;-93
2023/03/27 09:09:41;;;;;;;13.98;1.52;;;5.10;99.90;;;;;;5068216;28;20028;-93
2023/03/27 09:12:42;;;;;;;5.88;1.50;;;5.30;99.90;;;;;;5075253;28;20070;-93
2023/03/27 09:15:33;;;;;;;8.27;1.85;;;5.40;99.90;;;;;;5077417;28;20038;-94
2023/03/27 09:18:36;;;;;;;12.60;2.20;;;5.60;99.90;;;;;;5062192;28;20024;-93
2023/03/27 09:21:20;;;;;;;8.63;1.90;;;5.70;99.90;;;;;;5093267;28;20020;-93
2023/03/27 09:23:46;;;;;;;9.25;2.22;;;5.90;99.90;;;;;;5096310;28;20070;-94
2023/03/27 09:26:12;;;;;;;13.98;4.47;;;6.10;99.90;;;;;;5080165;28;20542;-94
2023/03/27 09:28:54;;;;;;;18.80;6.13;;;6.20;99.90;;;;;;5091649;28;20024;-95
2023/03/27 09:31:30;;;;;;;13.43;5.38;;;6.40;99.90;;;;;;5083389;28;20057;-91
2023/03/27 09:33:59;;;;;;;14.43;4.85;;;6.60;99.90;;;;;;5080050;28;20055;-90
2023/03/27 09:36:25;;;;;;;6.75;3.17;;;6.80;99.90;;;;;;5084203;28;20031;-91
2023/03/27 09:38:57;;;;;;;14.02;3.58;;;7.00;99.90;;;;;;5073925;28;20024;-93
2023/03/27 09:41:28;;;;;;;13.10;4.25;;;7.20;99.90;;;;;;5057978;28;20025;-93
2023/03/27 09:44:00;;;;;;;8.27;4.40;;;7.50;99.90;;;;;;5056685;28;20110;-93
2023/03/27 09:46:27;;;;;;;8.98;2.15;;;7.60;99.70;;;;;;5064222;28;20046;-93
2023/03/27 09:49:16;;;;;;;9.43;3.03;;;7.70;99.20;;;;;;5073790;28;20028;-94
2023/03/27 09:51:47;;;;;;;6.88;2.97;;;7.90;98.70;;;;;;5074515;28;20027;-94
2023/03/27 09:54:16;;;;;;;9.40;2.85;;;8.00;97.80;;;;;;5074565;28;20048;-95
2023/03/27 09:56:48;;;;;;;10.73;2.35;;;8.10;97.30;;;;;;5074004;28;20029;-92
2023/03/27 09:59:29;;;;;;;5.07;1.38;;;8.30;97.00;;;;;;5074958;28;20036;-95
2023/03/27 10:01:57;;;;;;;6.50;1.30;;;8.50;96.00;;;;;;5078556;28;20033;-94
2023/03/27 10:04:25;;;;;;;7.40;1.08;;;8.60;95.20;;;;;;5075390;28;20077;-92
2023/03/27 10:07:00;;;;;;;9.05;1.67;;;8.80;94.70;;;;;;5085915;28;20017;-94
2023/03/27 10:09:37;;;;;;;7.55;1.85;;;8.90;94.10;;;;;;5084941;28;20024;-93
2023/03/27 10:12:06;;;;;;;10.15;2.38;;;9.10;93.20;;;;;;5088363;28;20048;-94
2023/03/27 10:14:37;;;;;;;4.88;1.42;;;9.20;92.60;;;;;;5076574;28;20068;-91
2023/03/27 10:17:03;;;;;;;8.13;1.98;;;9.30;92.50;;;;;;5077427;28;20020;-91
2023/03/27 10:19:40;;;;;;;9.23;2.00;;;9.40;91.50;;;;;;5078053;28;20036;-92
2023/03/27 10:22:39;;;;;;;5.57;2.92;;;9.50;91.30;;;;;;5077472;28;20035;-92
2023/03/27 10:25:33;;;;;;;9.38;3.72;;;9.60;90.80;;;;;;5073495;28;20036;-92
2023/03/27 10:30:30;;;;;;;6.78;2.05;;;10.00;89.80;;;;;;5071989;28;20100;-95
2023/03/27 10:32:56;;;;;;;7.40;2.75;;;10.00;89.10;;;;;;5086926;28;20047;-94
2023/03/27 10:35:35;;;;;;;8.93;2.78;;;10.20;88.80;;;;;;5097858;28;20471;-94
2023/03/27 10:38:05;;;;;;;8.82;2.22;;;10.30;88.10;;;;;;5100590;28;20056;-96
2023/03/27 10:40:34;;;;;;;8.23;2.92;;;10.50;87.70;;;;;;5101086;28;20020;-95
2023/03/27 10:43:05;;;;;;;10.82;3.67;;;10.80;87.60;;;;;;5104277;28;20538;-95
2023/03/27 10:45:38;;;;;;;8.30;2.40;;;11.10;86.20;;;;;;5111618;28;20523;-95
2023/03/27 10:48:10;;;;;;;8.15;2.20;;;11.30;85.20;;;;;;5115899;28;20016;-95
2023/03/27 10:51:01;;;;;;;6.85;2.08;;;11.60;84.40;;;;;;5118141;28;20040;-96
2023/03/27 10:57:14;;;;;;;6.13;2.17;;;11.80;81.50;;;;;;5118828;28;20062;-96
2023/03/27 11:00:21;;;;;;;6.97;2.67;;;11.70;80.60;;;;;;5118502;27;20052;-96
2023/03/27 11:11:05;;;;;;;6.53;2.40;;;11.00;79.50;;;;;;4992158;28;20066;-94
2023/03/27 11:13:39;;;;;;;8.30;2.70;;;11.10;79.80;;;;;;4996034;28;20039;-95
2023/03/27 11:16:27;;;;;;;7.28;1.98;;;11.30;79.60;;;;;;4980957;28;20023;-94
2023/03/27 11:19:07;;;;;;;5.13;2.13;;;11.80;79.00;;;;;;4993032;28;20042;-94
2023/03/27 11:21:38;;;;;;;7.80;2.70;;;12.10;77.40;;;;;;4989537;28;20035;-94
2023/03/27 11:32:48;;;;;;;4.70;2.42;;;11.70;75.70;;;;;;6058762;23;20099;-95
2023/03/27 11:35:21;;;;;;;6.18;2.55;;;11.30;76.00;;;;;;5028396;28;20049;-94
2023/03/27 11:38:13;;;;;;;10.43;2.75;;;11.10;76.10;;;;;;5015424;28;20048;-95
2023/03/27 11:40:44;;;;;;;7.47;2.28;;;10.90;76.20;;;;;;5013629;28;20440;-96
2023/03/27 11:43:13;;;;;;;;;;;10.90;76.90;;;;;;5018068;28;20033;-95
2023/03/27 11:46:01;;;;;;;10.85;2.75;;;10.90;76.90;;;;;;5014357;28;19992;-95
2023/03/27 11:48:48;;;;;;;10.50;2.50;;;10.90;76.80;;;;;;5015128;28;20022;-96
2023/03/27 11:51:40;;;;;;;4.68;2.47;;;10.80;76.80;;;;;;5031352;28;20069;-95
2023/03/27 11:54:23;;;;;;;5.30;2.40;;;10.80;76.90;;;;;;5021976;28;20038;-94
2023/03/27 11:56:58;;;;;;;8.63;2.40;;;10.90;76.70;;;;;;5021360;28;20029;-96
2023/03/27 11:59:45;;;;;;;8.52;2.58;;;10.90;76.10;;;;;;5007245;28;20030;-94
2023/03/27 12:02:29;;;;;;;6.47;2.10;;;10.90;74.60;;;;;;5038220;28;20109;-95
2023/03/27 12:05:21;;;;;;;3.08;1.80;;;10.70;74.60;;;;;;5010772;28;20034;-95
2023/03/27 12:08:11;;;;;;;8.82;2.47;;;10.50;74.60;;;;;;5034600;28;20057;-95
2023/03/27 12:10:45;;;;;;;3.30;1.83;;;10.30;75.00;;;;;;5010993;28;20026;-96
2023/03/27 12:13:40;;;;;;;9.27;2.70;;;10.20;75.60;;;;;;5012796;28;20535;-96
2023/03/27 12:17:04;;;;;;;7.07;3.28;;;10.10;76.10;;;;;;5024396;28;20034;-96
2023/03/27 12:19:38;;;;;;;8.18;3.90;;;9.90;76.70;;;;;;4967298;28;20055;-95
2023/03/27 12:22:30;;;;;;;11.77;3.08;;;9.80;77.50;;;;;;5023539;28;20037;-95
2023/03/27 12:25:37;;;;;;;4.65;2.30;;;9.70;77.60;;;;;;5019066;28;20061;-95
2023/03/27 12:28:09;;;;;;;4.40;2.55;;;9.70;77.80;;;;;;5023213;28;20026;-94
2023/03/27 12:30:59;;;;;;;10.48;3.58;;;9.60;77.90;;;;;;5023228;28;20030;-95
2023/03/27 12:33:37;;;;;;;8.02;2.58;;;9.70;78.30;;;;;;5018873;28;20256;-95
2023/03/27 12:36:08;;;;;;;9.73;3.03;;;9.80;78.40;;;;;;5019424;28;20021;-95
2023/03/27 12:38:40;;;;;;;7.85;2.83;;;10.00;78.40;;;;;;5021828;28;20099;-95
2023/03/27 12:41:11;;;;;;;7.10;2.38;;;10.10;78.30;;;;;;5029772;28;20018;-95
2023/03/27 12:43:42;;;;;;;6.65;2.40;;;10.30;78.00;;;;;;5029987;28;20040;-95
2023/03/27 12:46:30;;;;;;;9.25;2.85;;;10.40;77.40;;;;;;5021851;28;20689;-94
2023/03/27 12:49:00;;;;;;;9.80;2.78;;;10.50;76.90;;;;;;5037913;28;20033;-95
2023/03/27 12:51:52;;;;;;;4.53;2.00;;;10.70;76.70;;;;;;5020558;28;20029;-94
2023/03/27 12:54:26;;;;;;;5.93;2.20;;;10.90;76.40;;;;;;5020352;28;20033;-96
2023/03/27 12:56:58;;;;;;;15.48;3.65;;;10.90;75.30;;;;;;5020991;28;20025;-96
2023/03/27 12:59:27;;;;;;;4.95;2.42;;;10.90;74.80;;;;;;5024997;28;20026;-96
2023/03/27 13:02:02;;;;;;;10.98;2.55;;;10.90;74.60;;;;;;5026216;28;20562;-95
2023/03/27 13:04:48;;;;;;;4.63;2.00;;;10.70;74.00;;;;;;5026290;28;20022;-95
2023/03/27 13:07:35;;;;;;;5.82;2.22;;;10.70;74.40;;;;;;5044224;28;20033;-94
2023/03/27 13:10:25;;;;;;;4.15;2.33;;;10.70;74.40;;;;;;5039458;28;20025;-96
2023/03/27 13:13:16;;;;;;;5.95;1.90;;;10.70;74.30;;;;;;5023830;28;20038;-94
2023/03/27 13:16:11;;;;;;;11.43;2.97;;;10.60;74.00;;;;;;5035632;28;20014;-96
2023/03/27 13:19:11;;;;;;;6.40;2.20;;;10.50;74.10;;;;;;5023491;28;20025;-96
2023/03/27 13:22:07;;;;;;;6.53;2.15;;;10.50;74.30;;;;;;5021082;28;20078;-95
2023/03/27 13:25:00;;;;;;;8.52;2.67;;;10.40;74.30;;;;;;5020864;28;20048;-96
2023/03/27 13:28:13;;;;;;;9.48;1.85;;;10.40;74.50;;;;;;5021240;28;20033;-95
2023/03/27 13:30:47;;;;;;;5.55;2.10;;;10.40;74.50;;;;;;5022067;28;20093;-95
2023/03/27 13:33:24;;;;;;;5.05;1.95;;;10.30;74.50;;;;;;5020501;28;20095;-95
2023/03/27 13:36:11;;;;;;;4.28;1.80;;;10.30;74.70;;;;;;5026206;28;20009;-96
2023/03/27 13:38:51;;;;;;;7.65;2.15;;;10.20;74.30;;;;;;5025043;28;20025;-96
2023/03/27 13:41:36;;;;;;;;;;;10.10;74.10;;;;;;5032972;28;20040;-96
2023/03/27 13:44:09;;;;;;;7.47;2.15;;;10.10;74.50;;;;;;5032090;28;19919;-96
2023/03/27 13:46:37;;;;;;;5.32;2.30;;;10.20;74.40;;;;;;5033780;28;20123;-96
2023/03/27 13:49:19;;;;;;;7.03;2.08;;;10.30;74.30;;;;;;5026991;28;20056;-95
2023/03/27 13:52:04;;;;;;;6.65;1.83;;;10.80;75.20;;;;;;5028823;28;20461;-95